Chickamauga, Tennessee
Current Conditions -  °F | °C
As of 10:53 AM on Wednesday 26 Nov 2014 (Local Time) from KCHA Reporting Station
Scattered Clouds Scattered Clouds  
Wind Chill: 46°   Ceiling: Unl
Heat Index: 48°   Visibility: 10mi
Dew Point: 27°   Wind: 5mph
Humidity: 44%   Direction: 310°NW
Pressure: 30.13"   Gusts: NA
Location:  35.0457°N, 85.3094°W
Report Text: KCHA 261553Z 31004KT 10SM SCT250 09/M03 A3013 RMK AO2 SLP205 T00891028
Loading
Personal Weather Stations






























Interactive Weather Map New forecast layout! Learn more

10-Day Weather Forecast

Advertisements
Track Severe Weather on mobile